Crab Orchard Estates, Illinois
Current Conditions -  °F | °C
As of 4:52 PM on Friday 31 Oct 2014 (Local Time) from KMDH Reporting Station
Broken Clouds Broken Clouds  
Wind Chill: 38°   Ceiling: 6000
Heat Index: 46°   Visibility: 10mi
Dew Point: 22°   Wind: 23mph
Humidity: 39%   Direction: 330°NNW
Pressure: 30.25"   Gusts: 33mph
Location:  37.7248°N, 89.197°W
Report Text: KMDH 312152Z AUTO 33020G29KT 10SM BKN060 08/M06 A3025 RMK AO2 PK WND 34029/2152 SLP245 T00781056
Loading
Personal Weather Stations






























Interactive Weather Map
Tropical Storm Tracking
New forecast layout! Learn more

10-Day Weather Forecast

Advertisements
Track Severe Weather on mobile